createdAt,value
2022-10-17T00:02:15.028Z,6.50
2022-10-17T00:05:16.484Z,6.60
2022-10-17T00:08:18.446Z,7.50
2022-10-17T00:11:22.596Z,6.78
2022-10-17T00:14:23.969Z,7.32
2022-10-17T00:17:25.789Z,6.45
2022-10-17T00:20:27.650Z,7.15
2022-10-17T00:23:29.103Z,5.82
2022-10-17T00:26:30.447Z,5.63
2022-10-17T00:29:31.842Z,5.53
2022-10-17T00:32:33.343Z,5.72
2022-10-17T00:35:34.691Z,5.93
2022-10-17T00:38:37.036Z,5.07
2022-10-17T00:41:38.439Z,5.05
2022-10-17T00:44:40.200Z,5.50
2022-10-17T00:47:45.444Z,5.50
2022-10-17T00:50:48.740Z,5.40
2022-10-17T00:56:52.500Z,6.05
2022-10-17T00:59:57.251Z,6.60
2022-10-17T01:02:58.701Z,5.78
2022-10-17T01:06:00.049Z,5.30
2022-10-17T01:09:01.512Z,5.88
2022-10-17T01:12:15.137Z,5.70
2022-10-17T01:19:02.777Z,5.55
2022-10-17T01:22:22.647Z,5.53
2022-10-17T01:25:41.317Z,5.93
2022-10-17T01:29:16.945Z,6.57
2022-10-17T01:32:37.150Z,5.57
2022-10-17T01:35:52.563Z,5.28
2022-10-17T01:39:02.895Z,5.57
2022-10-17T01:42:22.078Z,4.70
2022-10-17T01:45:32.199Z,5.05
2022-10-17T01:48:37.498Z,4.82
2022-10-17T01:51:46.419Z,5.00
2022-10-17T01:54:58.110Z,4.60
2022-10-17T01:58:32.998Z,5.35
2022-10-17T02:01:37.504Z,5.57
2022-10-17T02:04:40.414Z,5.43
2022-10-17T02:07:41.954Z,5.13
2022-10-17T02:11:00.739Z,4.90
2022-10-17T02:14:09.386Z,5.30
2022-10-17T02:17:43.439Z,4.97
2022-10-17T02:20:57.624Z,5.00
2022-10-17T02:24:10.705Z,5.55
2022-10-17T02:27:16.935Z,6.22
2022-10-17T02:30:41.996Z,5.78
2022-10-17T02:33:58.355Z,6.07
2022-10-17T02:37:02.799Z,6.13
2022-10-17T02:40:06.468Z,5.63
2022-10-17T02:43:08.253Z,6.43
2022-10-17T02:46:10.258Z,6.10
2022-10-17T02:49:21.032Z,6.15
2022-10-17T02:52:33.856Z,6.07
2022-10-17T02:55:43.584Z,6.38
2022-10-17T02:58:50.613Z,5.80
2022-10-17T03:01:52.489Z,5.88
2022-10-17T03:04:53.845Z,5.30
2022-10-17T03:07:56.299Z,4.93
2022-10-17T03:10:59.440Z,5.47
2022-10-17T03:14:02.533Z,4.93
2022-10-17T03:17:04.111Z,4.82
2022-10-17T03:20:06.981Z,5.80
2022-10-17T03:23:08.613Z,5.82
2022-10-17T03:26:10.662Z,4.80
2022-10-17T03:29:13.699Z,4.93
2022-10-17T03:32:15.571Z,5.13
2022-10-17T03:35:17.107Z,4.50
2022-10-17T03:38:22.515Z,4.68
2022-10-17T03:41:23.942Z,5.38
2022-10-17T03:44:25.439Z,4.63
2022-10-17T03:47:28.841Z,4.60
2022-10-17T03:50:31.085Z,4.40
2022-10-17T03:53:34.030Z,4.88
2022-10-17T03:56:35.452Z,4.68
2022-10-17T03:59:39.656Z,4.70
2022-10-17T04:02:47.145Z,4.70
2022-10-17T04:05:53.022Z,4.72
2022-10-17T04:08:54.579Z,4.28
2022-10-17T04:12:00.771Z,4.50
2022-10-17T04:15:04.795Z,4.70
2022-10-17T04:18:06.363Z,4.40
2022-10-17T04:21:11.224Z,4.07
2022-10-17T04:24:13.376Z,4.07
2022-10-17T04:27:22.113Z,4.47
2022-10-17T04:30:23.489Z,4.63
2022-10-17T04:33:25.604Z,5.28
2022-10-17T04:36:27.121Z,6.03
2022-10-17T04:39:29.425Z,6.90
2022-10-17T04:42:32.567Z,6.05
2022-10-17T04:45:34.177Z,6.22
2022-10-17T04:48:39.119Z,5.53
2022-10-17T04:51:40.682Z,5.07
2022-10-17T04:54:51.473Z,4.70
2022-10-17T04:57:52.865Z,5.10
2022-10-17T05:00:56.395Z,4.75
2022-10-17T05:04:02.281Z,4.50
2022-10-17T05:07:04.068Z,4.57
2022-10-17T05:10:23.878Z,4.40
2022-10-17T05:13:27.108Z,4.40
2022-10-17T05:16:29.401Z,5.13
2022-10-17T05:19:30.746Z,5.22
2022-10-17T05:22:32.659Z,4.35
2022-10-17T05:25:34.615Z,5.05
2022-10-17T05:28:36.744Z,5.07
2022-10-17T05:31:39.086Z,4.82
2022-10-17T05:34:41.959Z,5.20
2022-10-17T05:37:43.359Z,4.47
2022-10-17T05:40:44.886Z,5.32
2022-10-17T05:43:46.969Z,5.15
2022-10-17T05:46:55.571Z,5.50
2022-10-17T05:49:57.171Z,5.68
2022-10-17T05:53:05.437Z,5.60
2022-10-17T05:56:13.063Z,5.93
2022-10-17T05:59:14.480Z,5.53
2022-10-17T06:02:25.208Z,5.65
2022-10-17T06:05:26.840Z,5.97
2022-10-17T06:08:28.453Z,5.10
2022-10-17T06:11:29.977Z,5.80
2022-10-17T06:14:31.404Z,5.93
2022-10-17T06:17:36.316Z,5.57
2022-10-17T06:20:38.127Z,6.10
2022-10-17T06:23:40.699Z,5.55
2022-10-17T06:26:48.721Z,5.50
2022-10-17T06:29:51.468Z,5.47
2022-10-17T06:32:53.715Z,6.03
2022-10-17T06:35:56.625Z,5.25
2022-10-17T06:38:59.675Z,5.47
2022-10-17T06:42:27.013Z,5.63
2022-10-17T06:45:40.107Z,5.65
2022-10-17T06:49:01.736Z,5.40
2022-10-17T06:52:23.379Z,5.20
2022-10-17T06:55:51.841Z,5.45
2022-10-17T06:59:05.507Z,4.93
2022-10-17T07:02:11.383Z,4.90
2022-10-17T07:05:13.223Z,4.87
2022-10-17T07:08:14.862Z,5.35
2022-10-17T07:11:19.385Z,4.47
2022-10-17T07:14:23.418Z,4.57
2022-10-17T07:17:25.365Z,4.05
2022-10-17T07:20:27.425Z,4.43
2022-10-17T07:23:28.854Z,4.30
2022-10-17T07:26:30.265Z,4.60
2022-10-17T07:29:31.877Z,4.25
2022-10-17T07:32:43.843Z,4.80
2022-10-17T07:35:45.174Z,5.00
2022-10-17T07:38:46.553Z,4.90
2022-10-17T07:41:49.338Z,4.70
2022-10-17T07:44:50.858Z,4.97
2022-10-17T07:47:55.990Z,4.55
2022-10-17T07:50:57.606Z,4.45
2022-10-17T07:53:58.995Z,4.80
2022-10-17T07:57:00.514Z,4.60
2022-10-17T08:00:01.967Z,4.32
2022-10-17T08:03:04.327Z,3.83
2022-10-17T08:06:05.707Z,4.43
2022-10-17T08:09:07.067Z,4.70
2022-10-17T08:12:08.505Z,3.40
2022-10-17T08:15:10.947Z,3.88
2022-10-17T08:18:12.296Z,3.03
2022-10-17T08:21:13.663Z,3.85
2022-10-17T08:24:15.031Z,3.47
2022-10-17T08:27:16.541Z,3.30
2022-10-17T08:30:18.217Z,3.67
2022-10-17T08:33:19.728Z,3.38
2022-10-17T08:36:21.092Z,4.03
2022-10-17T08:39:22.496Z,3.78
2022-10-17T08:42:51.636Z,3.25
2022-10-17T08:46:00.148Z,3.42
2022-10-17T08:49:06.482Z,4.32
2022-10-17T08:52:21.748Z,3.95
2022-10-17T08:55:46.333Z,3.45
2022-10-17T08:58:47.817Z,3.47
2022-10-17T09:02:23.509Z,4.38
2022-10-17T09:05:39.770Z,4.45
2022-10-17T09:08:52.245Z,4.13
2022-10-17T09:12:16.602Z,3.33
2022-10-17T09:15:37.425Z,3.65
2022-10-17T09:18:47.977Z,4.10
2022-10-17T09:21:58.119Z,3.45
2022-10-17T09:25:04.768Z,3.13
2022-10-17T09:28:31.267Z,3.75
2022-10-17T09:31:40.862Z,3.50
2022-10-17T09:34:42.221Z,3.95
2022-10-17T09:37:44.032Z,3.50
2022-10-17T09:40:57.129Z,3.80
2022-10-17T09:44:09.082Z,3.50
2022-10-17T09:47:20.942Z,2.63
2022-10-17T09:50:28.644Z,3.70
2022-10-17T09:53:36.484Z,3.70
2022-10-17T09:56:58.335Z,3.70
2022-10-17T10:00:02.312Z,3.75
2022-10-17T10:03:12.784Z,3.60
2022-10-17T10:06:20.895Z,3.47
2022-10-17T10:09:31.536Z,2.92
2022-10-17T10:12:39.073Z,3.30
2022-10-17T10:15:45.606Z,4.10
2022-10-17T10:18:50.128Z,3.33
2022-10-17T10:21:59.573Z,3.03
2022-10-17T10:25:17.074Z,3.30
2022-10-17T10:28:18.627Z,3.55
2022-10-17T10:31:28.217Z,3.75
2022-10-17T10:34:30.616Z,3.80
2022-10-17T10:37:43.053Z,3.03
2022-10-17T10:40:47.974Z,3.57
2022-10-17T10:43:51.953Z,3.50
2022-10-17T10:47:08.465Z,3.58
2022-10-17T10:50:28.722Z,3.65
2022-10-17T10:53:51.503Z,3.47
2022-10-17T10:56:56.438Z,3.72
2022-10-17T11:00:06.219Z,3.30
2022-10-17T11:03:21.106Z,3.70
2022-10-17T11:06:34.189Z,3.60
2022-10-17T11:09:44.822Z,3.70
2022-10-17T11:12:53.128Z,3.45
2022-10-17T11:16:16.811Z,3.08
2022-10-17T11:19:31.310Z,3.90
2022-10-17T11:22:55.650Z,3.92
2022-10-17T11:26:02.558Z,4.00
2022-10-17T11:29:05.427Z,3.55
2022-10-17T11:35:23.683Z,4.20
2022-10-17T11:38:56.776Z,4.55
2022-10-17T11:42:05.327Z,3.50
2022-10-17T11:45:14.025Z,4.28
2022-10-17T11:48:24.823Z,4.03
2022-10-17T11:54:54.712Z,4.95
2022-10-17T12:01:38.713Z,3.95
2022-10-17T12:04:56.827Z,3.72
2022-10-17T12:08:21.176Z,4.28
2022-10-17T12:11:39.041Z,4.82
2022-10-17T12:14:41.689Z,5.43
2022-10-17T12:17:54.653Z,5.47
2022-10-17T12:20:57.660Z,5.07
2022-10-17T12:27:31.643Z,6.18
2022-10-17T12:30:34.166Z,6.37
2022-10-17T12:33:47.990Z,6.13
2022-10-17T12:36:49.349Z,6.95
2022-10-17T12:39:50.780Z,6.25
2022-10-17T12:42:52.225Z,7.32
2022-10-17T12:46:04.973Z,6.95
2022-10-17T12:49:38.651Z,7.57
2022-10-17T12:55:41.442Z,8.13
2022-10-17T12:58:46.419Z,8.32
2022-10-17T13:01:52.228Z,9.27
2022-10-17T13:05:04.983Z,8.95
2022-10-17T13:08:14.659Z,11.93
2022-10-17T13:11:16.268Z,10.60
2022-10-17T13:14:21.151Z,10.15
2022-10-17T13:17:26.499Z,10.10
2022-10-17T13:20:31.770Z,10.13
2022-10-17T13:23:37.781Z,9.98
2022-10-17T13:26:45.743Z,10.10
2022-10-17T13:29:47.163Z,10.15
2022-10-17T13:32:48.963Z,9.98
2022-10-17T13:36:05.693Z,10.13
2022-10-17T13:39:12.342Z,10.50
2022-10-17T13:42:28.639Z,10.20
2022-10-17T13:45:36.708Z,10.63
2022-10-17T13:48:38.336Z,10.25
2022-10-17T13:51:44.504Z,9.95
2022-10-17T13:54:51.468Z,10.13
2022-10-17T13:57:52.873Z,10.80
2022-10-17T14:00:54.586Z,11.27
2022-10-17T14:04:07.799Z,11.05
2022-10-17T14:07:34.333Z,10.00
2022-10-17T14:10:44.196Z,11.40
2022-10-17T14:13:49.990Z,12.18
2022-10-17T14:16:52.175Z,12.85
2022-10-17T14:20:30.872Z,15.90
2022-10-17T14:23:40.349Z,13.02
2022-10-17T14:26:54.234Z,11.20
2022-10-17T14:29:58.557Z,14.50
2022-10-17T14:33:02.038Z,15.95
2022-10-17T14:36:03.917Z,17.30
2022-10-17T14:39:13.370Z,15.65
2022-10-17T14:42:20.869Z,17.00
2022-10-17T14:45:24.808Z,19.33
2022-10-17T14:48:29.047Z,19.95
2022-10-17T14:51:39.998Z,17.92
2022-10-17T14:54:52.390Z,14.48
2022-10-17T14:57:53.964Z,16.45
2022-10-17T15:00:56.515Z,14.57
2022-10-17T15:03:57.911Z,15.52
2022-10-17T15:06:59.271Z,14.88
2022-10-17T15:10:00.622Z,14.07
2022-10-17T15:13:27.076Z,14.20
2022-10-17T15:16:26.833Z,15.73
2022-10-17T15:19:28.211Z,15.32
2022-10-17T15:22:29.822Z,16.63
2022-10-17T15:25:32.112Z,16.95
2022-10-17T15:28:33.666Z,15.97
2022-10-17T15:31:35.102Z,15.75
2022-10-17T15:34:36.520Z,15.40
2022-10-17T15:37:37.912Z,14.98
2022-10-17T15:40:41.303Z,14.73
2022-10-17T15:43:42.657Z,14.13
2022-10-17T15:46:44.136Z,13.07
2022-10-17T15:49:45.480Z,12.32
2022-10-17T15:52:47.061Z,10.80
2022-10-17T15:55:48.444Z,10.80
2022-10-17T15:58:50.634Z,9.95
2022-10-17T16:01:52.209Z,9.23
2022-10-17T16:04:53.877Z,9.45
2022-10-17T16:07:55.920Z,10.05
2022-10-17T16:10:57.265Z,10.88
2022-10-17T16:14:04.943Z,9.85
2022-10-17T16:17:06.421Z,10.65
2022-10-17T16:20:09.609Z,10.82
2022-10-17T16:23:13.210Z,10.93
2022-10-17T16:26:14.549Z,11.55
2022-10-17T16:29:16.293Z,13.05
2022-10-17T16:32:17.683Z,13.05
2022-10-17T16:35:30.677Z,15.05
2022-10-17T16:38:34.746Z,15.10
2022-10-17T16:41:38.073Z,14.15
2022-10-17T16:44:39.414Z,12.98
2022-10-17T16:47:40.762Z,13.13
2022-10-17T16:50:42.114Z,12.18
2022-10-17T16:53:43.849Z,12.70
2022-10-17T16:56:45.182Z,12.57
2022-10-17T16:59:46.519Z,12.35
2022-10-17T17:02:48.495Z,11.93
2022-10-17T17:05:50.815Z,11.35
2022-10-17T17:08:52.755Z,11.67
2022-10-17T17:11:54.084Z,11.15
2022-10-17T17:14:55.432Z,11.77
2022-10-17T17:17:57.998Z,12.32
2022-10-17T17:21:02.156Z,12.65
2022-10-17T17:24:04.352Z,11.23
2022-10-17T17:27:07.817Z,11.27
2022-10-17T17:30:11.573Z,11.98
2022-10-17T17:33:12.977Z,11.93
2022-10-17T17:36:16.877Z,12.07
2022-10-17T17:39:18.204Z,13.88
2022-10-17T17:42:19.569Z,14.20
2022-10-17T17:45:20.900Z,15.40
2022-10-17T17:48:22.458Z,16.95
2022-10-17T17:51:28.332Z,16.27
2022-10-17T17:54:30.485Z,17.17
2022-10-17T17:57:31.835Z,18.20
2022-10-17T18:00:33.839Z,18.42
2022-10-17T18:03:35.222Z,17.13
2022-10-17T18:06:37.965Z,18.90
2022-10-17T18:09:39.314Z,19.73
2022-10-17T18:12:41.418Z,19.35
2022-10-17T18:15:44.274Z,21.58
2022-10-17T18:18:45.644Z,20.83
2022-10-17T18:21:47.023Z,21.77
2022-10-17T18:24:48.834Z,21.55
2022-10-17T18:27:50.156Z,15.20
2022-10-17T18:30:51.477Z,11.27
2022-10-17T18:33:57.925Z,8.13
2022-10-17T18:36:59.271Z,4.10
2022-10-17T18:40:00.611Z,3.80
2022-10-17T18:43:01.968Z,3.72
2022-10-17T18:46:07.706Z,3.75
2022-10-17T18:49:15.232Z,3.30
2022-10-17T18:52:16.592Z,3.00
2022-10-17T18:55:18.466Z,3.13
2022-10-17T18:58:20.453Z,2.92
2022-10-17T19:01:24.834Z,3.30
2022-10-17T19:04:26.629Z,3.75
2022-10-17T19:07:28.333Z,3.20
2022-10-17T19:10:32.512Z,4.22
2022-10-17T19:13:34.901Z,3.90
2022-10-17T19:16:37.211Z,6.22
2022-10-17T19:19:38.740Z,5.87
2022-10-17T19:22:40.140Z,5.07
2022-10-17T19:25:41.609Z,4.40
2022-10-17T19:28:43.116Z,4.53
2022-10-17T19:31:45.442Z,5.00
2022-10-17T19:34:46.859Z,5.00
2022-10-17T19:37:48.195Z,3.65
2022-10-17T19:40:49.877Z,3.70
2022-10-17T19:43:51.597Z,3.55
2022-10-17T19:46:52.968Z,3.22
2022-10-17T19:49:54.426Z,4.03
2022-10-17T19:52:55.824Z,3.42
2022-10-17T19:55:58.307Z,3.55
2022-10-17T19:58:59.652Z,3.90
2022-10-17T20:02:01.076Z,3.60
2022-10-17T20:05:18.911Z,3.80
2022-10-17T20:08:21.270Z,3.45
2022-10-17T20:11:27.928Z,3.80
2022-10-17T20:14:29.272Z,3.40
2022-10-17T20:17:30.648Z,4.00
2022-10-17T20:20:34.702Z,3.50
2022-10-17T20:23:36.477Z,3.58
2022-10-17T20:26:39.403Z,4.03
2022-10-17T20:29:41.093Z,3.50
2022-10-17T20:32:42.558Z,4.32
2022-10-17T20:38:46.365Z,3.90
2022-10-17T20:41:47.735Z,3.83
2022-10-17T20:44:49.079Z,3.58
2022-10-17T20:47:52.476Z,3.78
2022-10-17T20:50:54.455Z,3.95
2022-10-17T20:57:01.075Z,3.60
2022-10-17T21:00:05.823Z,3.75
2022-10-17T21:03:07.831Z,3.58
2022-10-17T21:06:09.694Z,3.75
2022-10-17T21:09:11.018Z,4.05
2022-10-17T21:12:18.070Z,4.22
2022-10-17T21:15:27.663Z,5.10
2022-10-17T21:18:28.982Z,5.45
2022-10-17T21:21:33.003Z,6.70
2022-10-17T21:24:34.492Z,7.38
2022-10-17T21:27:35.835Z,7.57
2022-10-17T21:30:37.200Z,7.75
2022-10-17T21:33:39.635Z,7.78
2022-10-17T21:36:41.335Z,8.87
2022-10-17T21:39:42.684Z,8.77
2022-10-17T21:42:44.020Z,8.90
2022-10-17T21:45:45.353Z,8.75
2022-10-17T21:48:48.205Z,8.93
2022-10-17T21:51:50.562Z,9.70
2022-10-17T21:54:51.884Z,9.87
2022-10-17T21:57:53.216Z,9.73
2022-10-17T22:01:08.228Z,10.13
2022-10-17T22:04:15.349Z,8.95
2022-10-17T22:07:16.750Z,9.77
2022-10-17T22:10:18.097Z,9.85
2022-10-17T22:13:19.489Z,10.10
2022-10-17T22:16:21.672Z,10.00
2022-10-17T22:19:25.108Z,10.40
2022-10-17T22:22:26.443Z,10.38
2022-10-17T22:25:27.805Z,11.15
2022-10-17T22:28:29.233Z,11.13
2022-10-17T22:31:30.857Z,11.07
2022-10-17T22:34:32.773Z,10.75
2022-10-17T22:37:34.151Z,11.10
2022-10-17T22:40:35.562Z,11.68
2022-10-17T22:43:37.135Z,10.85
2022-10-17T22:46:39.582Z,11.65
2022-10-17T22:49:43.222Z,12.48
2022-10-17T22:52:44.586Z,11.77
2022-10-17T22:56:03.882Z,11.70
2022-10-17T22:59:05.235Z,13.15
2022-10-17T23:02:06.666Z,12.00
2022-10-17T23:05:08.439Z,12.93
2022-10-17T23:08:10.259Z,13.13
2022-10-17T23:11:11.702Z,13.13
2022-10-17T23:14:13.042Z,14.48
2022-10-17T23:17:15.065Z,14.30
2022-10-17T23:20:16.493Z,14.23
2022-10-17T23:23:18.819Z,14.50
2022-10-17T23:26:20.229Z,15.20
2022-10-17T23:29:22.511Z,14.95
2022-10-17T23:32:23.945Z,15.07
2022-10-17T23:35:25.411Z,14.48
2022-10-17T23:38:26.792Z,15.95
2022-10-17T23:41:28.354Z,15.75
2022-10-17T23:44:29.695Z,15.98
2022-10-17T23:47:31.566Z,16.27
2022-10-17T23:50:33.116Z,16.27
2022-10-17T23:53:35.292Z,17.15
2022-10-17T23:56:36.624Z,15.20
2022-10-17T23:59:37.966Z,17.45
